KHTL/HTL METAR and TAF weather

Enter ICAO airport designator
Station Type Date Time Source
KHTL METAR 2019/10/23 19:53 UTC NOAA

KHTL 231953Z AUTO 26013G21KT 10SM FEW039 10/01 A2985 RMK AO2 SLP113 T01000011


Station Type Date Time Source
KHTL Decoded METAR 2019/10/23 19:53 UTC NOAA

ROSCOMMON COUNTY AIRPORT, MI, United States (KHTL) 44-21N 084-40W 351M
Oct 23, 2019 - 03:53 PM EDT / 2019.10.23 1953 UTC
Wind: from the W (260 degrees) at 15 MPH (13 KT) gusting to 24 MPH (21 KT):0
Visibility: 10 mile(s):0
Sky conditions: mostly clear
Temperature: 50.0 F (10.0 C)
Dew Point: 34.0 F (1.1 C)
Relative Humidity: 53%
Pressure (altimeter): 29.85 in. Hg (1010 hPa)
ob: KHTL 231953Z AUTO 26013G21KT 10SM FEW039 10/01 A2985 RMK AO2 SLP113 T01000011
cycle: 20

Station Type Date Time Source
KHTL TAF UTC NOAA

Error!

Example: see airport list